createdAt,value
2019-05-02T00:00:22.524Z,9.00
2019-05-02T00:02:51.492Z,9.00
2019-05-02T00:05:21.231Z,8.90
2019-05-02T00:07:53.914Z,8.90
2019-05-02T00:10:24.825Z,8.90
2019-05-02T00:12:52.963Z,8.90
2019-05-02T00:15:27.828Z,8.90
2019-05-02T00:18:01.044Z,8.90
2019-05-02T00:20:27.525Z,8.90
2019-05-02T00:22:56.468Z,8.90
2019-05-02T00:25:25.501Z,8.90
2019-05-02T00:27:54.923Z,8.90
2019-05-02T00:30:24.068Z,8.90
2019-05-02T00:32:57.828Z,8.90
2019-05-02T00:35:24.000Z,8.90
2019-05-02T00:37:57.482Z,8.90
2019-05-02T00:40:25.843Z,8.90
2019-05-02T00:42:58.283Z,8.90
2019-05-02T00:45:25.970Z,8.90
2019-05-02T00:47:59.698Z,8.90
2019-05-02T00:50:30.246Z,8.90
2019-05-02T00:52:59.243Z,8.90
2019-05-02T00:55:29.011Z,8.90
2019-05-02T00:57:58.859Z,8.90
2019-05-02T01:00:28.743Z,8.90
2019-05-02T01:02:59.175Z,8.90
2019-05-02T01:05:28.209Z,8.90
2019-05-02T01:08:01.126Z,8.90
2019-05-02T01:10:27.994Z,8.90
2019-05-02T01:12:56.965Z,8.90
2019-05-02T01:15:25.928Z,8.90
2019-05-02T01:17:54.916Z,8.90
2019-05-02T01:20:27.418Z,8.90
2019-05-02T01:22:54.499Z,8.90
2019-05-02T01:25:32.628Z,9.00
2019-05-02T01:28:21.278Z,9.00
2019-05-02T01:31:04.127Z,9.00
2019-05-02T01:33:41.693Z,9.00
2019-05-02T01:36:15.663Z,9.00
2019-05-02T01:38:49.254Z,8.90
2019-05-02T01:41:18.201Z,8.90
2019-05-02T01:43:47.144Z,8.90
2019-05-02T01:46:17.130Z,8.90
2019-05-02T01:48:47.759Z,8.90
2019-05-02T01:51:16.735Z,8.90
2019-05-02T01:53:45.739Z,8.90
2019-05-02T01:56:15.684Z,8.90
2019-05-02T01:58:44.554Z,8.90
2019-05-02T02:01:16.119Z,8.90
2019-05-02T02:03:45.536Z,8.90
2019-05-02T02:06:14.714Z,9.00
2019-05-02T02:08:43.676Z,9.00
2019-05-02T02:11:14.146Z,9.00
2019-05-02T02:13:43.065Z,9.00
2019-05-02T02:16:12.033Z,9.00
2019-05-02T02:18:42.507Z,9.00
2019-05-02T02:21:27.770Z,9.00
2019-05-02T02:24:01.324Z,9.00
2019-05-02T02:26:30.217Z,9.00
2019-05-02T02:29:03.005Z,9.00
2019-05-02T02:31:29.716Z,9.00
2019-05-02T02:33:58.623Z,9.00
2019-05-02T02:36:33.935Z,9.00
2019-05-02T02:38:58.142Z,9.00
2019-05-02T02:41:28.620Z,9.00
2019-05-02T02:44:07.392Z,9.00
2019-05-02T02:46:40.023Z,9.00
2019-05-02T02:49:13.922Z,9.00
2019-05-02T02:51:38.955Z,9.00
2019-05-02T02:54:07.880Z,9.00
2019-05-02T02:56:40.408Z,8.90
2019-05-02T02:59:07.476Z,8.90
2019-05-02T03:01:36.304Z,8.90
2019-05-02T03:04:09.476Z,8.90
2019-05-02T03:06:38.643Z,8.90
2019-05-02T03:09:10.686Z,8.90
2019-05-02T03:11:41.196Z,8.90
2019-05-02T03:14:14.650Z,8.90
2019-05-02T03:16:47.469Z,8.90
2019-05-02T03:19:21.320Z,8.90
2019-05-02T03:22:00.329Z,8.90
2019-05-02T03:24:25.801Z,8.90
2019-05-02T03:26:55.842Z,8.90
2019-05-02T03:29:39.105Z,8.80
2019-05-02T03:32:12.280Z,8.90
2019-05-02T03:34:45.355Z,8.80
2019-05-02T03:37:03.270Z,8.80
2019-05-02T03:39:29.153Z,8.70
2019-05-02T03:42:02.726Z,8.60
2019-05-02T03:44:28.793Z,8.60
2019-05-02T03:47:01.836Z,8.50
2019-05-02T03:49:28.468Z,8.40
2019-05-02T03:52:02.802Z,8.30
2019-05-02T03:54:28.403Z,8.30
2019-05-02T03:56:57.491Z,8.30
2019-05-02T03:59:37.382Z,8.30
2019-05-02T04:01:58.452Z,8.20
2019-05-02T04:04:27.542Z,8.10
2019-05-02T04:07:01.303Z,8.10
2019-05-02T04:09:42.107Z,8.00
2019-05-02T04:12:11.822Z,8.00
2019-05-02T04:14:39.262Z,8.00
2019-05-02T04:17:10.915Z,8.00
2019-05-02T04:19:40.951Z,7.90
2019-05-02T04:22:12.038Z,7.90
2019-05-02T04:24:40.946Z,7.90
2019-05-02T04:27:10.036Z,7.90
2019-05-02T04:29:39.229Z,7.90
2019-05-02T04:32:11.394Z,7.90
2019-05-02T04:34:38.905Z,7.90
2019-05-02T04:37:07.864Z,7.90
2019-05-02T04:39:39.020Z,7.90
2019-05-02T04:42:13.207Z,7.80
2019-05-02T04:44:52.740Z,7.80
2019-05-02T04:47:16.930Z,7.80
2019-05-02T04:49:40.766Z,7.80
2019-05-02T04:52:12.325Z,7.80
2019-05-02T04:54:40.293Z,7.80
2019-05-02T04:57:09.256Z,7.80
2019-05-02T04:59:39.781Z,7.80
2019-05-02T05:02:09.307Z,7.80
2019-05-02T05:04:44.757Z,7.80
2019-05-02T05:07:09.488Z,7.80
2019-05-02T05:09:39.943Z,7.80
2019-05-02T05:12:09.493Z,7.80
2019-05-02T05:14:43.060Z,7.90
2019-05-02T05:17:09.064Z,7.90
2019-05-02T05:19:37.964Z,7.90
2019-05-02T05:22:11.580Z,7.90
2019-05-02T05:24:42.584Z,7.90
2019-05-02T05:27:13.419Z,7.90
2019-05-02T05:30:07.930Z,7.90
2019-05-02T05:32:32.198Z,7.90
2019-05-02T05:35:03.303Z,7.90
2019-05-02T05:37:31.835Z,8.00
2019-05-02T05:40:04.101Z,8.00
2019-05-02T05:45:28.285Z,8.00
2019-05-02T05:48:01.100Z,8.10
2019-05-02T05:50:32.314Z,8.10
2019-05-02T05:52:59.472Z,8.10
2019-05-02T05:55:31.528Z,8.20
2019-05-02T05:58:10.489Z,8.10
2019-05-02T06:00:30.334Z,8.10
2019-05-02T06:03:10.144Z,8.10
2019-05-02T06:05:33.228Z,8.10
2019-05-02T06:08:18.367Z,8.00
2019-05-02T06:10:54.844Z,8.00
2019-05-02T06:13:28.132Z,7.90
2019-05-02T06:16:02.872Z,7.90
2019-05-02T06:18:28.391Z,7.90
2019-05-02T06:20:58.461Z,7.80
2019-05-02T06:23:31.070Z,7.90
2019-05-02T06:25:58.109Z,7.90
2019-05-02T06:28:27.001Z,7.90
2019-05-02T06:30:55.946Z,7.90
2019-05-02T06:33:25.953Z,7.90
2019-05-02T06:36:02.989Z,7.90
2019-05-02T06:38:37.981Z,7.90
2019-05-02T06:41:09.790Z,7.90
2019-05-02T06:43:41.232Z,8.00
2019-05-02T06:46:16.277Z,8.00
2019-05-02T06:48:48.213Z,8.00
2019-05-02T06:51:20.845Z,8.00
2019-05-02T06:53:48.995Z,8.00
2019-05-02T06:56:21.519Z,8.10
2019-05-02T06:58:50.721Z,8.10
2019-05-02T07:01:22.870Z,8.10
2019-05-02T07:03:54.870Z,8.10
2019-05-02T07:06:42.046Z,8.20
2019-05-02T07:09:06.344Z,8.20
2019-05-02T07:11:39.041Z,8.20
2019-05-02T07:14:13.360Z,8.10
2019-05-02T07:16:42.605Z,8.20
2019-05-02T07:19:27.444Z,8.20
2019-05-02T07:21:58.516Z,8.20
2019-05-02T07:24:30.605Z,8.20
2019-05-02T07:27:01.837Z,8.10
2019-05-02T07:29:29.232Z,8.10
2019-05-02T07:31:58.114Z,8.20
2019-05-02T07:34:27.005Z,8.20
2019-05-02T07:36:55.904Z,8.20
2019-05-02T07:39:24.883Z,8.30
2019-05-02T07:41:53.743Z,8.30
2019-05-02T07:44:22.664Z,8.30
2019-05-02T07:46:52.301Z,8.40
2019-05-02T07:49:26.550Z,8.50
2019-05-02T07:51:57.575Z,8.50
2019-05-02T07:54:24.837Z,8.70
2019-05-02T07:56:54.677Z,8.70
2019-05-02T07:59:25.098Z,8.80
2019-05-02T08:01:54.120Z,8.90
2019-05-02T08:04:22.986Z,9.00
2019-05-02T08:06:51.902Z,9.10
2019-05-02T08:09:21.012Z,9.10
2019-05-02T08:11:49.938Z,9.10
2019-05-02T08:14:18.839Z,9.20
2019-05-02T08:16:47.726Z,9.20
2019-05-02T08:19:16.610Z,9.30
2019-05-02T08:21:45.511Z,9.40
2019-05-02T08:24:14.407Z,9.40
2019-05-02T08:26:58.250Z,9.40
2019-05-02T08:29:28.959Z,9.40
2019-05-02T08:31:55.768Z,9.40
2019-05-02T08:34:33.796Z,9.40
2019-05-02T08:37:04.903Z,9.40
2019-05-02T08:39:35.170Z,9.40
2019-05-02T08:42:05.405Z,9.30
2019-05-02T08:44:34.448Z,9.30
2019-05-02T08:47:03.446Z,9.30
2019-05-02T08:49:32.388Z,9.40
2019-05-02T08:52:01.347Z,9.40
2019-05-02T08:54:32.896Z,9.50
2019-05-02T08:57:00.862Z,9.60
2019-05-02T08:59:29.741Z,9.60
2019-05-02T09:01:58.603Z,9.70
2019-05-02T09:04:29.051Z,9.70
2019-05-02T09:06:59.263Z,9.80
2019-05-02T09:09:29.511Z,9.80
2019-05-02T09:12:09.695Z,9.80
2019-05-02T09:14:29.242Z,9.70
2019-05-02T09:17:00.306Z,9.50
2019-05-02T09:19:31.670Z,9.40
2019-05-02T09:21:59.223Z,9.30
2019-05-02T09:24:28.126Z,9.20
2019-05-02T09:26:57.045Z,9.10
2019-05-02T09:29:25.977Z,9.10
2019-05-02T09:31:54.851Z,9.10
2019-05-02T09:34:26.707Z,9.10
2019-05-02T09:36:54.288Z,9.10
2019-05-02T09:39:27.327Z,9.00
2019-05-02T09:41:58.032Z,8.90
2019-05-02T09:44:26.924Z,8.90
2019-05-02T09:46:57.164Z,8.90
2019-05-02T09:49:26.497Z,8.90
2019-05-02T09:51:59.222Z,9.10
2019-05-02T09:54:25.888Z,9.20
2019-05-02T09:56:54.847Z,9.40
2019-05-02T09:59:30.092Z,9.40
2019-05-02T10:01:55.791Z,9.40
2019-05-02T10:04:25.019Z,9.60
2019-05-02T10:06:55.872Z,9.70
2019-05-02T10:09:27.186Z,9.80
2019-05-02T10:11:56.435Z,9.90
2019-05-02T10:14:25.429Z,9.80
2019-05-02T10:16:57.606Z,9.60
2019-05-02T10:19:26.061Z,9.30
2019-05-02T10:21:56.468Z,9.10
2019-05-02T10:24:25.608Z,9.00
2019-05-02T10:27:03.200Z,9.00
2019-05-02T10:29:29.736Z,8.90
2019-05-02T10:31:58.823Z,8.80
2019-05-02T10:34:27.877Z,8.70
2019-05-02T10:36:59.034Z,8.70
2019-05-02T10:39:28.538Z,8.60
2019-05-02T10:42:01.989Z,8.70
2019-05-02T10:44:32.713Z,8.80
2019-05-02T10:47:02.916Z,9.00
2019-05-02T10:49:46.068Z,9.10
2019-05-02T10:52:14.917Z,9.10
2019-05-02T10:54:43.793Z,9.20
2019-05-02T10:57:12.817Z,9.20
2019-05-02T10:59:42.138Z,9.10
2019-05-02T11:02:22.270Z,9.10
2019-05-02T11:04:52.885Z,9.00
2019-05-02T11:07:25.910Z,8.90
2019-05-02T11:09:52.598Z,8.90
2019-05-02T11:12:25.583Z,8.90
2019-05-02T11:14:57.842Z,9.00
2019-05-02T11:17:28.382Z,8.90
2019-05-02T11:19:58.860Z,8.70
2019-05-02T11:22:27.756Z,8.60
2019-05-02T11:24:56.714Z,8.60
2019-05-02T11:27:26.796Z,8.60
2019-05-02T11:29:55.762Z,8.60
2019-05-02T11:32:25.514Z,8.60
2019-05-02T11:34:54.413Z,8.60
2019-05-02T11:37:23.305Z,8.50
2019-05-02T11:39:58.434Z,8.50
2019-05-02T11:42:27.125Z,8.60
2019-05-02T11:44:53.284Z,8.60
2019-05-02T11:47:26.506Z,8.60
2019-05-02T11:49:55.877Z,8.60
2019-05-02T11:52:27.476Z,8.40
2019-05-02T11:54:54.755Z,8.40
2019-05-02T11:57:28.680Z,8.40
2019-05-02T11:59:59.325Z,8.30
2019-05-02T12:02:32.013Z,8.30
2019-05-02T12:05:02.335Z,8.50
2019-05-02T12:07:32.441Z,8.50
2019-05-02T12:10:04.162Z,8.60
2019-05-02T12:12:36.251Z,8.60
2019-05-02T12:15:06.580Z,8.60
2019-05-02T12:17:35.430Z,8.70
2019-05-02T12:20:05.477Z,8.60
2019-05-02T12:22:34.469Z,8.60
2019-05-02T12:25:03.350Z,8.60
2019-05-02T12:27:33.480Z,8.60
2019-05-02T12:30:03.319Z,8.50
2019-05-02T12:32:33.392Z,8.50
2019-05-02T12:35:02.529Z,8.40
2019-05-02T12:37:32.707Z,8.50
2019-05-02T12:40:02.734Z,8.60
2019-05-02T12:42:33.050Z,8.70
2019-05-02T12:45:02.940Z,9.10
2019-05-02T12:47:32.009Z,9.60
2019-05-02T12:50:03.149Z,10.20
2019-05-02T12:52:32.284Z,10.20
2019-05-02T12:55:02.509Z,9.90
2019-05-02T12:57:32.144Z,9.60
2019-05-02T13:00:01.846Z,9.30
2019-05-02T13:02:39.454Z,8.90
2019-05-02T13:05:08.854Z,8.60
2019-05-02T13:07:37.721Z,8.60
2019-05-02T13:10:08.877Z,8.80
2019-05-02T13:12:47.305Z,8.90
2019-05-02T13:15:17.807Z,9.20
2019-05-02T13:17:48.822Z,9.30
2019-05-02T13:20:22.336Z,9.50
2019-05-02T13:23:08.297Z,9.40
2019-05-02T13:25:37.231Z,9.20
2019-05-02T13:28:06.188Z,9.10
2019-05-02T13:30:45.000Z,9.20
2019-05-02T13:33:15.230Z,9.10
2019-05-02T13:35:47.267Z,9.10
2019-05-02T13:38:17.714Z,9.10
2019-05-02T13:40:46.650Z,9.10
2019-05-02T13:43:15.615Z,9.10
2019-05-02T13:46:02.522Z,9.00
2019-05-02T13:48:32.301Z,9.00
2019-05-02T13:51:03.636Z,8.90
2019-05-02T13:53:32.326Z,8.60
2019-05-02T13:56:21.938Z,8.50
2019-05-02T13:58:51.893Z,8.50
2019-05-02T14:01:22.445Z,8.70
2019-05-02T14:03:55.051Z,8.80
2019-05-02T14:06:29.558Z,8.90
2019-05-02T14:09:18.412Z,9.00
2019-05-02T14:11:45.313Z,9.00
2019-05-02T14:14:14.185Z,9.00
2019-05-02T14:16:44.114Z,8.80
2019-05-02T14:19:13.150Z,8.60
2019-05-02T14:21:42.212Z,8.60
2019-05-02T14:24:11.796Z,8.50
2019-05-02T14:26:43.450Z,8.50
2019-05-02T14:29:16.081Z,8.50
2019-05-02T14:31:42.841Z,8.50
2019-05-02T14:34:30.004Z,8.50
2019-05-02T14:36:59.439Z,8.60
2019-05-02T14:39:28.606Z,8.50
2019-05-02T14:41:57.572Z,8.70
2019-05-02T14:44:33.366Z,8.70
2019-05-02T14:46:56.943Z,8.70
2019-05-02T14:49:26.396Z,8.80
2019-05-02T14:51:57.266Z,8.80
2019-05-02T14:54:25.923Z,8.90
2019-05-02T14:57:01.810Z,8.90
2019-05-02T14:59:32.123Z,9.00
2019-05-02T15:02:05.757Z,8.90
2019-05-02T15:04:32.884Z,8.80
2019-05-02T15:07:02.811Z,8.80
2019-05-02T15:09:32.674Z,8.90
2019-05-02T15:12:08.262Z,8.90
2019-05-02T15:14:34.951Z,8.90
2019-05-02T15:17:05.023Z,8.90
2019-05-02T15:19:33.949Z,8.80
2019-05-02T15:22:03.348Z,8.80
2019-05-02T15:24:36.162Z,8.80
2019-05-02T15:27:12.069Z,8.80
2019-05-02T15:29:33.283Z,8.70
2019-05-02T15:32:09.873Z,8.70
2019-05-02T15:34:55.704Z,8.60
2019-05-02T15:37:25.895Z,8.60
2019-05-02T15:42:25.877Z,8.60
2019-05-02T15:44:57.045Z,8.30
2019-05-02T15:47:26.953Z,8.30
2019-05-02T15:49:55.841Z,8.30
2019-05-02T15:52:28.280Z,8.50
2019-05-02T15:55:03.534Z,8.60
2019-05-02T15:57:27.865Z,8.70
2019-05-02T15:59:56.938Z,8.70
2019-05-02T16:02:27.411Z,8.70
2019-05-02T16:04:56.982Z,8.60
2019-05-02T16:07:26.811Z,8.50
2019-05-02T16:10:00.081Z,8.40
2019-05-02T16:12:27.194Z,8.30
2019-05-02T16:14:57.125Z,8.20
2019-05-02T16:17:29.329Z,8.10
2019-05-02T16:20:16.357Z,8.00
2019-05-02T16:22:49.606Z,8.10
2019-05-02T16:25:19.909Z,8.10
2019-05-02T16:27:47.115Z,8.10
2019-05-02T16:30:22.380Z,8.10
2019-05-02T16:33:03.321Z,8.10
2019-05-02T16:35:33.812Z,8.00
2019-05-02T16:38:02.684Z,8.10
2019-05-02T16:40:34.665Z,8.00
2019-05-02T16:43:03.006Z,8.10
2019-05-02T16:45:32.754Z,8.10
2019-05-02T16:48:03.318Z,8.10
2019-05-02T16:50:36.740Z,8.00
2019-05-02T16:53:03.088Z,8.00
2019-05-02T16:55:32.692Z,8.10
2019-05-02T16:58:07.166Z,8.10
2019-05-02T17:00:37.079Z,8.10
2019-05-02T17:03:04.538Z,8.20
2019-05-02T17:05:33.430Z,8.20
2019-05-02T17:10:57.030Z,8.10
2019-05-02T17:13:27.386Z,8.00
2019-05-02T17:15:56.712Z,7.90
2019-05-02T17:18:25.568Z,7.80
2019-05-02T17:20:56.790Z,7.70
2019-05-02T17:23:25.020Z,7.70
2019-05-02T17:25:53.877Z,7.70
2019-05-02T17:28:22.748Z,7.70
2019-05-02T17:30:52.446Z,7.70
2019-05-02T17:33:21.830Z,7.70
2019-05-02T17:35:52.302Z,7.70
2019-05-02T17:38:27.685Z,7.70
2019-05-02T17:40:54.336Z,7.70
2019-05-02T17:43:22.791Z,7.70
2019-05-02T17:45:51.715Z,7.70
2019-05-02T17:48:20.609Z,7.70
2019-05-02T17:50:59.255Z,7.70
2019-05-02T17:53:27.541Z,7.70
2019-05-02T17:55:56.593Z,7.70
2019-05-02T17:58:25.446Z,7.70
2019-05-02T18:00:57.186Z,7.70
2019-05-02T18:03:30.883Z,7.60
2019-05-02T18:05:58.248Z,7.70
2019-05-02T18:08:27.288Z,7.60
2019-05-02T18:10:59.918Z,7.60
2019-05-02T18:13:29.177Z,7.60
2019-05-02T18:15:57.223Z,7.50
2019-05-02T18:18:26.105Z,7.50
2019-05-02T18:20:54.960Z,7.50
2019-05-02T18:23:27.528Z,7.40
2019-05-02T18:25:57.531Z,7.40
2019-05-02T18:28:26.537Z,7.30
2019-05-02T18:30:57.105Z,7.40
2019-05-02T18:33:26.237Z,7.40
2019-05-02T18:35:55.123Z,7.40
2019-05-02T18:38:24.114Z,7.40
2019-05-02T18:40:55.387Z,7.30
2019-05-02T18:43:23.447Z,7.20
2019-05-02T18:45:52.371Z,7.10
2019-05-02T18:48:25.677Z,7.00
2019-05-02T18:50:54.546Z,6.90
2019-05-02T18:53:27.006Z,6.80
2019-05-02T18:55:56.709Z,6.80
2019-05-02T18:58:24.562Z,6.80
2019-05-02T19:00:59.546Z,6.70
2019-05-02T19:03:28.398Z,6.60
2019-05-02T19:05:58.469Z,6.50
2019-05-02T19:08:31.597Z,6.40
2019-05-02T19:11:07.543Z,6.40
2019-05-02T19:13:30.749Z,6.30
2019-05-02T19:16:02.761Z,6.30
2019-05-02T19:18:32.316Z,6.20
2019-05-02T19:21:03.135Z,6.10
2019-05-02T19:23:34.520Z,6.00
2019-05-02T19:26:10.277Z,6.00
2019-05-02T19:28:48.306Z,5.90
2019-05-02T19:31:17.249Z,5.90
2019-05-02T19:34:05.467Z,5.90
2019-05-02T19:36:34.367Z,5.80
2019-05-02T19:39:06.268Z,5.80
2019-05-02T19:41:33.851Z,5.80
2019-05-02T19:44:02.867Z,5.80
2019-05-02T19:46:38.365Z,5.70
2019-05-02T19:49:06.619Z,5.70
2019-05-02T19:51:34.035Z,5.60
2019-05-02T19:54:05.446Z,5.50
2019-05-02T19:56:43.943Z,5.50
2019-05-02T19:59:04.083Z,5.50
2019-05-02T20:01:33.054Z,5.50
2019-05-02T20:04:05.944Z,5.40
2019-05-02T20:06:32.646Z,5.40
2019-05-02T20:09:06.770Z,5.30
2019-05-02T20:11:32.811Z,5.30
2019-05-02T20:14:09.089Z,5.30
2019-05-02T20:16:44.154Z,5.20
2019-05-02T20:19:08.189Z,5.20
2019-05-02T20:21:44.402Z,5.10
2019-05-02T20:24:15.221Z,5.10
2019-05-02T20:26:46.687Z,5.10
2019-05-02T20:29:14.485Z,5.10
2019-05-02T20:31:44.801Z,5.10
2019-05-02T20:34:13.657Z,5.20
2019-05-02T20:36:42.664Z,5.20
2019-05-02T20:39:11.979Z,5.20
2019-05-02T20:41:41.996Z,5.30
2019-05-02T20:44:12.222Z,5.30
2019-05-02T20:46:42.124Z,5.40
2019-05-02T20:49:12.852Z,5.50
2019-05-02T20:51:42.356Z,5.40
2019-05-02T20:54:12.514Z,5.50
2019-05-02T20:56:42.618Z,5.40
2019-05-02T20:59:12.784Z,5.40
2019-05-02T21:01:42.865Z,5.30
2019-05-02T21:04:12.217Z,5.30
2019-05-02T21:06:52.596Z,5.30
2019-05-02T21:09:34.501Z,5.20
2019-05-02T21:12:08.354Z,5.10
2019-05-02T21:14:37.512Z,5.10
2019-05-02T21:17:07.192Z,5.10
2019-05-02T21:19:36.393Z,5.00
2019-05-02T21:22:08.223Z,5.00
2019-05-02T21:24:37.118Z,5.00
2019-05-02T21:27:06.281Z,4.90
2019-05-02T21:29:35.135Z,4.90
2019-05-02T21:32:03.989Z,4.80
2019-05-02T21:34:32.890Z,4.70
2019-05-02T21:37:04.769Z,4.60
2019-05-02T21:39:33.810Z,4.60
2019-05-02T21:42:03.117Z,4.70
2019-05-02T21:44:32.081Z,4.60
2019-05-02T21:47:02.843Z,4.60
2019-05-02T21:49:54.839Z,4.60
2019-05-02T21:52:25.300Z,4.60
2019-05-02T21:55:02.027Z,4.50
2019-05-02T21:57:32.221Z,4.40
2019-05-02T22:00:02.461Z,4.30
2019-05-02T22:02:31.882Z,4.20
2019-05-02T22:05:02.222Z,4.00
2019-05-02T22:07:32.811Z,3.80
2019-05-02T22:10:03.523Z,3.80
2019-05-02T22:12:33.865Z,3.70
2019-05-02T22:15:02.751Z,3.60
2019-05-02T22:17:32.222Z,3.50
2019-05-02T22:20:01.836Z,3.50
2019-05-02T22:22:32.126Z,3.40
2019-05-02T22:25:05.289Z,3.40
2019-05-02T22:27:39.685Z,3.40
2019-05-02T22:30:08.719Z,3.30
2019-05-02T22:32:37.629Z,3.30
2019-05-02T22:35:08.863Z,3.30
2019-05-02T22:37:39.334Z,3.40
2019-05-02T22:40:13.604Z,3.50
2019-05-02T22:42:42.552Z,3.50
2019-05-02T22:45:12.501Z,3.60
2019-05-02T22:47:43.382Z,3.60
2019-05-02T22:50:14.048Z,3.70
2019-05-02T22:52:42.958Z,3.80
2019-05-02T22:55:13.347Z,3.90
2019-05-02T22:57:44.020Z,4.00
2019-05-02T23:00:13.345Z,4.00
2019-05-02T23:02:44.694Z,4.10
2019-05-02T23:05:13.585Z,4.20
2019-05-02T23:07:42.482Z,4.30
2019-05-02T23:10:12.847Z,4.40
2019-05-02T23:12:42.360Z,4.40
2019-05-02T23:15:12.580Z,4.40
2019-05-02T23:17:42.758Z,4.50
2019-05-02T23:20:12.784Z,4.50
2019-05-02T23:22:42.090Z,4.50
2019-05-02T23:25:24.516Z,4.50
2019-05-02T23:27:57.773Z,4.50
2019-05-02T23:30:26.657Z,4.40
2019-05-02T23:32:55.520Z,4.30
2019-05-02T23:35:24.435Z,4.30
2019-05-02T23:37:53.291Z,4.30
2019-05-02T23:40:22.266Z,4.10
2019-05-02T23:42:52.416Z,4.10
2019-05-02T23:45:25.093Z,4.10
2019-05-02T23:47:54.027Z,4.00
2019-05-02T23:50:23.051Z,4.00
2019-05-02T23:52:52.104Z,4.10
2019-05-02T23:55:22.735Z,4.20
2019-05-02T23:57:52.314Z,4.30
